Time;durP1;ratioP1;P1;durP2;ratioP2;P2;SDS_P1;SDS_P2;PMS_P1;PMS_P2;Temp;Humidity;BMP_temperature;BMP_pressure;BME280_temperature;BME280_humidity;BME280_pressure;Samples;Min_cycle;Max_cycle;Signal;HPM_P1;HPM_P2
2021/08/14 00:01:37;;;;;;;75.70;36.40;;;17.80;99.90;;;;;;5111766;27;20242;-77
2021/08/14 00:04:08;;;;;;;85.57;38.33;;;17.80;99.90;;;;;;5111306;28;20459;-77
2021/08/14 00:06:40;;;;;;;96.07;41.97;;;17.80;99.90;;;;;;5111704;28;20532;-77
2021/08/14 00:09:15;;;;;;;132.00;44.93;;;17.70;99.90;;;;;;5112081;28;20447;-76
2021/08/14 00:11:46;;;;;;;116.53;43.43;;;17.70;99.90;;;;;;5111544;27;20434;-76
2021/08/14 00:14:16;;;;;;;137.17;43.90;;;17.70;99.90;;;;;;5130257;28;20843;-77
2021/08/14 00:16:48;;;;;;;123.17;47.87;;;17.60;99.90;;;;;;5111608;28;20534;-76
2021/08/14 00:19:18;;;;;;;118.60;43.73;;;17.60;99.90;;;;;;5116698;28;20546;-76
2021/08/14 00:21:47;;;;;;;7.28;4.70;;;17.60;99.90;;;;;;5115436;28;20463;-77
2021/08/14 00:24:21;;;;;;;122.03;36.87;;;17.60;99.90;;;;;;5095735;28;20721;-77
2021/08/14 00:26:51;;;;;;;9.50;5.38;;;17.70;99.90;;;;;;5096782;28;20987;-77
2021/08/14 00:29:20;;;;;;;80.50;37.87;;;17.70;99.90;;;;;;5097811;28;20194;-77
2021/08/14 00:31:50;;;;;;;104.67;41.23;;;17.70;99.90;;;;;;5097731;28;20475;-77
2021/08/14 00:34:19;;;;;;;96.23;39.80;;;17.70;99.90;;;;;;5097654;28;20462;-76
2021/08/14 00:36:48;;;;;;;133.07;52.50;;;17.60;99.90;;;;;;5097744;28;20447;-77
2021/08/14 00:39:20;;;;;;;90.67;38.67;;;17.60;99.90;;;;;;5097637;28;20524;-76
2021/08/14 00:41:51;;;;;;;123.17;45.00;;;17.60;99.90;;;;;;5116171;28;20468;-77
2021/08/14 00:44:20;;;;;;;137.83;43.50;;;17.60;99.90;;;;;;5097552;28;20523;-76
2021/08/14 00:46:51;;;;;;;117.13;49.83;;;17.50;99.90;;;;;;5114373;28;20463;-77
2021/08/14 00:49:23;;;;;;;8.95;4.90;;;17.50;99.90;;;;;;5092398;28;20479;-77
2021/08/14 00:51:51;;;;;;;84.40;41.00;;;17.60;99.90;;;;;;5097242;28;20597;-76
2021/08/14 00:54:22;;;;;;;9.70;5.07;;;17.50;99.90;;;;;;5076525;28;20445;-76
2021/08/14 00:56:52;;;;;;;96.30;38.47;;;17.60;99.90;;;;;;5094019;28;20222;-76
2021/08/14 00:59:22;;;;;;;105.23;39.80;;;17.60;99.90;;;;;;5095704;28;20429;-77
2021/08/14 01:01:52;;;;;;;111.27;39.47;;;17.50;99.90;;;;;;5095889;28;20805;-77
2021/08/14 01:04:22;;;;;;;104.90;41.77;;;17.50;99.90;;;;;;5095299;28;20448;-75
2021/08/14 01:06:51;;;;;;;130.60;49.90;;;17.40;99.90;;;;;;5093555;28;20464;-77
2021/08/14 01:09:20;;;;;;;94.10;53.03;;;17.40;99.90;;;;;;5076941;28;20444;-77
2021/08/14 01:11:52;;;;;;;94.83;43.47;;;17.40;99.90;;;;;;5111281;28;20479;-76
2021/08/14 01:14:22;;;;;;;135.83;51.23;;;17.40;99.90;;;;;;5115225;28;20451;-77
2021/08/14 01:16:51;;;;;;;75.50;30.95;;;17.40;99.90;;;;;;5115412;28;20434;-77
2021/08/14 01:19:21;;;;;;;112.43;47.60;;;17.40;99.90;;;;;;5096892;28;20194;-76
2021/08/14 01:21:53;;;;;;;81.38;35.45;;;17.30;99.90;;;;;;5097199;28;20520;-77
2021/08/14 01:24:23;;;;;;;135.00;47.90;;;17.30;99.90;;;;;;5096852;28;20654;-77
2021/08/14 01:26:54;;;;;;;118.23;48.03;;;17.30;99.90;;;;;;5113874;28;20452;-77
2021/08/14 01:29:23;;;;;;;118.83;51.50;;;17.30;99.90;;;;;;5096017;28;20443;-77
2021/08/14 01:31:54;;;;;;;131.17;51.90;;;17.30;99.90;;;;;;5096653;28;20468;-77
2021/08/14 01:34:24;;;;;;;121.27;50.10;;;17.20;99.90;;;;;;5113255;28;20447;-77
2021/08/14 01:36:55;;;;;;;144.63;46.90;;;17.20;99.90;;;;;;5114843;28;20773;-77
2021/08/14 01:39:24;;;;;;;128.10;49.07;;;17.20;99.90;;;;;;5113541;28;20443;-76
2021/08/14 01:41:59;;;;;;;135.67;47.77;;;17.20;99.90;;;;;;5093678;28;20445;-77
2021/08/14 01:44:29;;;;;;;154.07;52.20;;;17.20;99.90;;;;;;5096577;28;20451;-77
2021/08/14 01:47:03;;;;;;;11.60;6.50;;;17.20;99.90;;;;;;5095461;28;20439;-77
2021/08/14 01:49:33;;;;;;;100.60;36.03;;;17.20;99.90;;;;;;5097279;28;20185;-76
2021/08/14 01:52:08;;;;;;;13.48;7.72;;;17.20;99.90;;;;;;5095815;28;20442;-77
2021/08/14 01:54:39;;;;;;;97.23;40.67;;;17.20;99.90;;;;;;5114564;28;20268;-77
2021/08/14 01:57:11;;;;;;;91.57;41.97;;;17.20;99.90;;;;;;5096155;28;20451;-76
2021/08/14 01:59:41;;;;;;;110.37;40.37;;;17.10;99.90;;;;;;5096109;28;20508;-77
2021/08/14 02:02:13;;;;;;;108.73;43.80;;;17.10;99.90;;;;;;5114578;28;20459;-77
2021/08/14 02:04:42;;;;;;;135.67;45.80;;;17.00;99.90;;;;;;5096224;28;20512;-77
2021/08/14 02:07:12;;;;;;;116.27;44.73;;;17.00;99.90;;;;;;5114243;28;20529;-76
2021/08/14 02:09:40;;;;;;;156.63;52.47;;;17.00;99.90;;;;;;5096078;28;20451;-77
2021/08/14 02:12:16;;;;;;;149.33;48.33;;;16.90;99.90;;;;;;5095873;28;20468;-77
2021/08/14 02:14:44;;;;;;;102.25;35.00;;;16.90;99.90;;;;;;5112499;28;20449;-77
2021/08/14 02:17:13;;;;;;;117.90;41.10;;;16.90;99.90;;;;;;5114222;28;20200;-76
2021/08/14 02:19:42;;;;;;;113.57;36.90;;;16.90;99.90;;;;;;5096085;28;20492;-77
2021/08/14 02:22:12;;;;;;;139.53;49.43;;;16.90;99.90;;;;;;5114876;28;20205;-77
2021/08/14 02:24:41;;;;;;;116.50;46.37;;;16.90;99.90;;;;;;5095776;28;20451;-77
2021/08/14 02:27:13;;;;;;;112.60;46.17;;;16.80;99.90;;;;;;5095762;28;20447;-76
2021/08/14 02:29:42;;;;;;;112.50;45.23;;;16.80;99.90;;;;;;5095738;28;20464;-76
2021/08/14 02:32:11;;;;;;;114.90;42.07;;;16.80;99.90;;;;;;5095803;28;20467;-78
2021/08/14 02:34:40;;;;;;;127.33;47.23;;;16.80;99.90;;;;;;5095948;28;20538;-77
2021/08/14 02:37:08;;;;;;;140.03;52.77;;;16.80;99.90;;;;;;5095648;28;20446;-76
2021/08/14 02:39:38;;;;;;;123.37;49.47;;;16.80;99.90;;;;;;5095506;28;20945;-77
2021/08/14 02:42:07;;;;;;;149.37;50.37;;;16.80;99.90;;;;;;5113666;28;20441;-76
2021/08/14 02:44:39;;;;;;;54.33;21.58;;;16.80;99.90;;;;;;5096232;28;20442;-77
2021/08/14 02:47:10;;;;;;;158.30;49.57;;;16.80;99.90;;;;;;5113581;28;20670;-76
2021/08/14 02:49:42;;;;;;;59.58;21.60;;;16.80;99.90;;;;;;5094989;28;20443;-76
2021/08/14 02:52:14;;;;;;;94.83;44.83;;;16.80;99.90;;;;;;5095574;28;20240;-75
2021/08/14 02:54:45;;;;;;;139.17;48.10;;;16.80;99.90;;;;;;5095577;28;20849;-77
2021/08/14 02:57:13;;;;;;;123.23;49.33;;;16.80;99.90;;;;;;5095235;28;20439;-77
2021/08/14 02:59:45;;;;;;;162.90;52.30;;;16.70;99.90;;;;;;5095349;28;20807;-77
2021/08/14 03:02:14;;;;;;;146.13;58.40;;;16.70;99.90;;;;;;5095056;28;20471;-77
2021/08/14 03:04:45;;;;;;;166.40;54.60;;;16.70;99.90;;;;;;5113381;28;20822;-77
2021/08/14 03:07:15;;;;;;;150.57;47.60;;;16.70;99.90;;;;;;5094649;28;20459;-77
2021/08/14 03:09:45;;;;;;;128.03;50.67;;;16.70;99.90;;;;;;5094954;28;20558;-77
2021/08/14 03:12:14;;;;;;;158.47;52.10;;;16.70;99.90;;;;;;5094800;28;20478;-77
2021/08/14 03:14:42;;;;;;;11.93;7.90;;;16.70;99.90;;;;;;5094654;28;20433;-77
2021/08/14 03:17:16;;;;;;;141.47;45.27;;;16.80;99.90;;;;;;5095416;28;20201;-76
2021/08/14 03:19:47;;;;;;;39.22;16.50;;;16.70;99.90;;;;;;5111692;28;20436;-76
2021/08/14 03:22:16;;;;;;;141.10;43.13;;;16.80;99.90;;;;;;5112206;28;20218;-76
2021/08/14 03:24:45;;;;;;;155.87;46.20;;;16.80;99.90;;;;;;5095169;28;20418;-76
2021/08/14 03:27:20;;;;;;;146.20;47.90;;;16.80;99.90;;;;;;5094946;28;20501;-76
2021/08/14 03:29:51;;;;;;;157.30;49.67;;;16.80;99.90;;;;;;5112110;28;20494;-76
2021/08/14 03:32:24;;;;;;;166.30;54.53;;;16.80;99.90;;;;;;5112060;28;20441;-76
2021/08/14 03:34:55;;;;;;;161.27;50.73;;;16.80;99.90;;;;;;5095170;28;20443;-76
2021/08/14 03:37:24;;;;;;;140.03;49.20;;;16.80;99.90;;;;;;5095091;28;20875;-76
2021/08/14 03:39:53;;;;;;;175.20;50.30;;;16.70;99.90;;;;;;5095044;28;20444;-76
2021/08/14 03:42:24;;;;;;;151.80;53.83;;;16.70;99.90;;;;;;5113554;28;20466;-76
2021/08/14 03:44:59;;;;;;;71.03;25.95;;;16.70;99.90;;;;;;5113358;28;20919;-76
2021/08/14 03:47:30;;;;;;;158.40;51.70;;;16.80;99.90;;;;;;5112062;28;20724;-76
2021/08/14 03:49:59;;;;;;;74.65;25.92;;;16.80;99.90;;;;;;5098205;28;20445;-76
2021/08/14 03:52:28;;;;;;;156.50;52.47;;;16.70;99.90;;;;;;5074652;28;20218;-76
2021/08/14 03:54:57;;;;;;;134.07;54.03;;;16.80;99.90;;;;;;5081421;28;20455;-76
2021/08/14 04:00:12;;;;;;;158.67;54.73;;;16.80;99.90;;;;;;5115571;28;20547;-76
2021/08/14 04:02:51;;;;;;;193.77;52.43;;;16.70;99.90;;;;;;5117208;28;20441;-76
2021/08/14 04:05:24;;;;;;;145.93;51.00;;;16.70;99.90;;;;;;5098616;28;20500;-76
2021/08/14 04:07:54;;;;;;;162.27;55.93;;;16.70;99.90;;;;;;5115624;28;20500;-76
2021/08/14 04:10:25;;;;;;;161.80;62.00;;;16.70;99.90;;;;;;5116620;28;20430;-76
2021/08/14 04:12:55;;;;;;;187.10;55.30;;;16.70;99.90;;;;;;5098353;28;20535;-76
2021/08/14 04:15:26;;;;;;;83.63;24.63;;;16.70;99.90;;;;;;5097937;28;20998;-76
2021/08/14 04:18:03;;;;;;;140.50;52.07;;;16.70;99.90;;;;;;5116392;28;20463;-76
2021/08/14 04:20:31;;;;;;;50.20;20.45;;;16.70;99.90;;;;;;5116283;28;20501;-76
2021/08/14 04:23:02;;;;;;;134.43;47.90;;;16.70;99.90;;;;;;5114914;28;20209;-76
2021/08/14 04:25:31;;;;;;;133.17;42.90;;;16.70;99.90;;;;;;5115052;28;20458;-76
2021/08/14 04:27:59;;;;;;;174.67;55.80;;;16.70;99.90;;;;;;5098194;28;20443;-76
2021/08/14 04:30:31;;;;;;;192.77;50.93;;;16.70;99.90;;;;;;5097843;28;20451;-76
2021/08/14 04:33:06;;;;;;;151.83;51.67;;;16.70;99.90;;;;;;5098240;28;20941;-76
2021/08/14 04:35:35;;;;;;;152.17;51.67;;;16.60;99.90;;;;;;5114978;28;20436;-76
2021/08/14 04:38:03;;;;;;;134.07;55.17;;;16.60;99.90;;;;;;5098414;28;20542;-76
2021/08/14 04:40:31;;;;;;;190.97;54.87;;;16.60;99.90;;;;;;5098238;28;20505;-77
2021/08/14 04:42:59;;;;;;;156.77;55.57;;;16.60;99.90;;;;;;5116648;28;20493;-76
2021/08/14 04:45:28;;;;;;;96.43;32.50;;;16.60;99.90;;;;;;5115981;28;20792;-76
2021/08/14 04:47:56;;;;;;;126.23;49.30;;;16.60;99.90;;;;;;5116384;28;20235;-76
2021/08/14 04:50:26;;;;;;;109.53;31.48;;;16.60;99.90;;;;;;5115791;28;20450;-76
2021/08/14 04:52:54;;;;;;;169.87;48.27;;;16.60;99.90;;;;;;5097787;28;20595;-75
2021/08/14 04:55:22;;;;;;;185.07;49.20;;;16.70;99.90;;;;;;5097607;28;20934;-76
2021/08/14 04:57:50;;;;;;;216.73;50.67;;;16.60;99.90;;;;;;5114650;28;20447;-76
2021/08/14 05:00:18;;;;;;;154.43;52.43;;;16.60;99.90;;;;;;5097611;28;21025;-76
2021/08/14 05:02:46;;;;;;;169.80;48.57;;;16.60;99.90;;;;;;5115535;28;20454;-77
2021/08/14 05:05:16;;;;;;;201.27;52.77;;;16.60;99.90;;;;;;5097254;28;20451;-76
2021/08/14 05:07:45;;;;;;;156.00;50.47;;;16.70;99.90;;;;;;5097680;28;20493;-76
2021/08/14 05:10:15;;;;;;;184.57;50.53;;;16.70;99.90;;;;;;5110760;28;20474;-77
2021/08/14 05:12:43;;;;;;;149.83;48.43;;;16.70;99.90;;;;;;5095009;28;20431;-76
2021/08/14 05:15:11;;;;;;;172.40;51.30;;;16.70;99.90;;;;;;5094874;28;20912;-77
2021/08/14 05:17:40;;;;;;;9.73;7.22;;;16.70;99.90;;;;;;5098987;28;20521;-77
2021/08/14 05:20:08;;;;;;;149.90;48.83;;;16.70;99.90;;;;;;5096881;28;20651;-76
2021/08/14 05:22:36;;;;;;;9.25;6.40;;;16.80;99.90;;;;;;5114187;28;20442;-76
2021/08/14 05:25:07;;;;;;;111.43;32.40;;;16.90;99.90;;;;;;5115342;28;20710;-76
2021/08/14 05:27:35;;;;;;;107.90;39.50;;;16.80;99.90;;;;;;5096790;28;20547;-76
2021/08/14 05:30:04;;;;;;;127.73;42.13;;;16.80;99.90;;;;;;5096823;28;21189;-76
2021/08/14 05:32:32;;;;;;;113.40;48.73;;;16.80;99.90;;;;;;5094395;28;20460;-77
2021/08/14 05:35:00;;;;;;;121.27;42.30;;;16.80;99.90;;;;;;5096514;28;20550;-76
2021/08/14 05:37:29;;;;;;;106.30;40.13;;;16.80;99.90;;;;;;5096615;28;20431;-76
2021/08/14 05:39:57;;;;;;;160.63;40.80;;;16.80;99.90;;;;;;5097008;28;20474;-76
2021/08/14 05:42:26;;;;;;;124.20;45.27;;;16.80;99.90;;;;;;5096688;28;20827;-76
2021/08/14 05:44:54;;;;;;;126.93;43.57;;;16.80;99.90;;;;;;5114931;28;20483;-75
2021/08/14 05:47:24;;;;;;;131.53;43.30;;;16.90;99.90;;;;;;5096314;28;20461;-75
2021/08/14 05:49:53;;;;;;;128.30;41.30;;;16.90;99.90;;;;;;5096251;28;20472;-75
2021/08/14 05:52:23;;;;;;;187.30;46.70;;;16.80;99.90;;;;;;5096106;28;20475;-74
2021/08/14 05:54:51;;;;;;;137.47;45.93;;;16.90;99.90;;;;;;5114285;28;20786;-74
2021/08/14 05:57:20;;;;;;;131.20;48.10;;;16.90;99.90;;;;;;5114704;28;20479;-73
2021/08/14 05:59:49;;;;;;;9.52;6.78;;;16.90;99.90;;;;;;5113288;28;20423;-74
2021/08/14 06:02:17;;;;;;;112.10;38.27;;;17.10;99.90;;;;;;5114764;28;20229;-73
2021/08/14 06:04:46;;;;;;;111.40;40.67;;;17.10;99.90;;;;;;5114944;28;20454;-73
2021/08/14 06:07:14;;;;;;;132.83;44.50;;;17.10;99.90;;;;;;5096062;28;20451;-75
2021/08/14 06:09:42;;;;;;;144.67;46.73;;;17.10;99.90;;;;;;5114297;28;20589;-74
2021/08/14 06:12:10;;;;;;;161.83;50.67;;;17.10;99.90;;;;;;5096019;28;20470;-74
2021/08/14 06:14:39;;;;;;;132.27;44.70;;;17.20;99.90;;;;;;5114481;28;20944;-76
2021/08/14 06:17:08;;;;;;;138.30;52.57;;;17.20;99.90;;;;;;5095482;28;20439;-73
2021/08/14 06:19:37;;;;;;;135.10;45.63;;;17.30;99.90;;;;;;5095947;28;20455;-74
2021/08/14 06:22:05;;;;;;;149.47;43.07;;;17.50;99.90;;;;;;5113498;28;20959;-73
2021/08/14 06:24:33;;;;;;;147.07;50.33;;;17.70;99.90;;;;;;5114331;28;20997;-73
2021/08/14 06:27:02;;;;;;;10.02;6.68;;;17.80;99.90;;;;;;5114151;28;20427;-73
2021/08/14 06:29:30;;;;;;;152.43;49.23;;;18.00;99.90;;;;;;5092935;28;20285;-73
2021/08/14 06:31:58;;;;;;;50.55;20.50;;;18.10;99.90;;;;;;5075532;28;20448;-73
2021/08/14 06:34:28;;;;;;;143.63;44.27;;;18.10;99.90;;;;;;5076281;28;20221;-74
2021/08/14 06:36:56;;;;;;;182.03;47.63;;;18.20;99.90;;;;;;5076003;28;20448;-74
2021/08/14 06:39:24;;;;;;;158.50;45.93;;;18.20;99.90;;;;;;5094276;28;20432;-74
2021/08/14 06:41:52;;;;;;;151.60;46.27;;;18.20;99.90;;;;;;5087433;28;20470;-74
2021/08/14 06:44:20;;;;;;;138.10;46.77;;;18.20;99.90;;;;;;5097074;28;20448;-74
2021/08/14 06:46:48;;;;;;;194.57;56.47;;;18.30;99.90;;;;;;5075513;28;20455;-74
2021/08/14 06:49:16;;;;;;;160.03;54.70;;;18.40;99.90;;;;;;5092487;28;20444;-74
2021/08/14 06:51:46;;;;;;;169.93;52.43;;;18.50;99.90;;;;;;5092474;28;20505;-76
2021/08/14 06:54:14;;;;;;;152.13;57.67;;;18.60;99.90;;;;;;5093874;28;20437;-76
2021/08/14 06:56:42;;;;;;;247.93;61.40;;;18.90;99.90;;;;;;5092546;28;20891;-74
2021/08/14 06:59:11;;;;;;;195.13;60.27;;;19.10;99.90;;;;;;5092738;28;20444;-76
2021/08/14 07:01:39;;;;;;;83.10;27.83;;;19.40;99.90;;;;;;5092437;28;20444;-78
2021/08/14 07:04:07;;;;;;;231.07;67.37;;;19.60;99.90;;;;;;5099189;28;20440;-77
2021/08/14 07:06:35;;;;;;;220.83;67.97;;;19.80;99.90;;;;;;5112735;28;20470;-77
2021/08/14 07:09:05;;;;;;;235.67;74.07;;;20.00;99.90;;;;;;5095394;28;20487;-77
2021/08/14 07:11:34;;;;;;;227.10;72.63;;;20.20;99.90;;;;;;5095537;28;20495;-77
2021/08/14 07:14:02;;;;;;;242.87;73.57;;;20.30;99.90;;;;;;5095155;28;20451;-77
2021/08/14 07:16:30;;;;;;;263.43;75.37;;;20.40;99.90;;;;;;5095588;28;20451;-77
2021/08/14 07:18:59;;;;;;;268.37;77.50;;;20.50;99.90;;;;;;5095510;28;20870;-77
2021/08/14 07:21:28;;;;;;;244.17;77.93;;;20.60;99.90;;;;;;5095667;28;20491;-76
2021/08/14 07:23:56;;;;;;;244.60;77.30;;;20.60;99.90;;;;;;5112235;28;20448;-77
2021/08/14 07:26:26;;;;;;;43.53;16.95;;;20.60;99.90;;;;;;5100552;28;20866;-77
2021/08/14 07:28:56;;;;;;;234.70;78.13;;;20.70;99.90;;;;;;5077543;28;20292;-77
2021/08/14 07:31:25;;;;;;;92.55;30.90;;;20.80;99.90;;;;;;5095842;28;20436;-77
2021/08/14 07:33:53;;;;;;;233.10;79.50;;;21.00;99.90;;;;;;5096332;28;20258;-77
2021/08/14 07:36:22;;;;;;;280.70;81.70;;;21.10;99.90;;;;;;5095973;28;20511;-77
2021/08/14 07:38:50;;;;;;;279.83;81.17;;;21.10;99.90;;;;;;5096813;28;20497;-78
2021/08/14 07:41:43;;;;;;;280.77;84.53;;;21.10;99.90;;;;;;5115775;28;20571;-78
2021/08/14 07:44:12;;;;;;;280.47;83.20;;;21.10;99.90;;;;;;5114682;28;20944;-78
2021/08/14 07:46:48;;;;;;;270.63;81.43;;;21.00;99.90;;;;;;5118259;28;20419;-78
2021/08/14 07:49:17;;;;;;;279.07;80.13;;;21.00;99.90;;;;;;5115531;28;20447;-78
2021/08/14 07:51:46;;;;;;;279.50;81.57;;;21.10;99.90;;;;;;5098875;28;20474;-76
2021/08/14 07:54:38;;;;;;;280.67;80.47;;;21.20;99.90;;;;;;5118566;28;20974;-78
2021/08/14 07:57:07;;;;;;;279.47;84.00;;;21.20;99.90;;;;;;5116224;28;20501;-76
2021/08/14 07:59:36;;;;;;;280.70;77.33;;;21.30;99.90;;;;;;5100116;28;20444;-75
2021/08/14 08:02:05;;;;;;;280.90;88.00;;;21.50;99.90;;;;;;5117723;28;20475;-75
2021/08/14 08:04:33;;;;;;;278.90;80.37;;;21.70;99.90;;;;;;5118103;28;20462;-75
2021/08/14 08:07:01;;;;;;;281.77;90.83;;;21.90;99.90;;;;;;5116245;28;20463;-76
2021/08/14 08:09:32;;;;;;;284.47;90.70;;;22.00;99.90;;;;;;5118541;28;20453;-73
2021/08/14 08:12:12;;;;;;;268.60;90.47;;;22.20;99.90;;;;;;5098934;28;20495;-73
2021/08/14 08:14:43;;;;;;;276.37;89.30;;;22.30;99.90;;;;;;5116014;28;20451;-73
2021/08/14 08:17:11;;;;;;;286.13;90.03;;;22.40;99.90;;;;;;5099508;28;20454;-73
2021/08/14 08:19:40;;;;;;;287.03;94.40;;;22.50;99.90;;;;;;5099088;28;20455;-76
2021/08/14 08:22:09;;;;;;;284.93;104.23;;;22.60;99.90;;;;;;5119302;28;20463;-81
2021/08/14 08:24:37;;;;;;;287.70;101.07;;;22.70;99.90;;;;;;5100745;28;20948;-79
2021/08/14 08:27:07;;;;;;;13.02;6.60;;;22.80;99.90;;;;;;5098467;28;20787;-78
2021/08/14 08:29:39;;;;;;;244.87;91.17;;;22.90;99.90;;;;;;5098993;28;20202;-78
2021/08/14 08:32:12;;;;;;;12.98;7.30;;;23.00;99.90;;;;;;5086932;28;20535;-79
2021/08/14 08:34:40;;;;;;;284.97;98.83;;;23.00;99.90;;;;;;5099652;28;20215;-79
2021/08/14 08:37:09;;;;;;;278.23;94.77;;;23.00;99.90;;;;;;5099816;28;20448;-78
2021/08/14 08:39:38;;;;;;;285.43;98.87;;;23.00;99.90;;;;;;5098963;28;20504;-78
2021/08/14 08:53:45;;;;;;;61.53;28.73;;;23.10;99.90;;;;;;5135395;27;20247;-78
2021/08/14 08:56:13;;;;;;;215.50;88.27;;;23.40;99.90;;;;;;5132939;27;20230;-78
2021/08/14 08:58:41;;;;;;;143.63;51.90;;;23.30;99.90;;;;;;5128551;28;20951;-78
2021/08/14 09:01:09;;;;;;;241.57;94.20;;;23.30;99.90;;;;;;5131508;28;20438;-78
2021/08/14 09:03:38;;;;;;;275.43;96.17;;;23.40;99.90;;;;;;5131247;27;20477;-78
2021/08/14 09:06:06;;;;;;;275.13;96.80;;;23.40;99.90;;;;;;5132476;28;20453;-78
2021/08/14 09:08:35;;;;;;;285.53;96.33;;;23.30;99.90;;;;;;5132898;28;20867;-78
2021/08/14 09:11:09;;;;;;;233.47;87.70;;;23.30;99.90;;;;;;5131153;28;20458;-78
2021/08/14 09:13:40;;;;;;;280.00;89.07;;;23.20;99.90;;;;;;5132450;28;20458;-78
2021/08/14 09:16:21;;;;;;;281.43;87.40;;;23.10;99.90;;;;;;5132452;28;20510;-78
2021/08/14 09:18:54;;;;;;;271.60;90.33;;;23.10;99.90;;;;;;5129239;28;20804;-77
2021/08/14 09:21:30;;;;;;;282.73;91.23;;;23.20;99.90;;;;;;5129381;28;20798;-77
2021/08/14 09:24:03;;;;;;;284.73;96.13;;;23.30;99.90;;;;;;5129311;28;20556;-77
2021/08/14 09:26:57;;;;;;;14.13;6.80;;;23.30;99.90;;;;;;5128456;28;20948;-77
2021/08/14 09:29:30;;;;;;;275.10;99.33;;;23.40;99.90;;;;;;5129438;28;20435;-77
2021/08/14 09:31:59;;;;;;;283.90;92.13;;;23.50;99.90;;;;;;5130717;27;20419;-77
2021/08/14 09:34:28;;;;;;;273.87;92.20;;;23.40;99.90;;;;;;5129408;28;20869;-77
2021/08/14 09:37:04;;;;;;;284.90;91.53;;;23.40;99.90;;;;;;5129089;28;20439;-77
2021/08/14 09:39:34;;;;;;;285.63;94.90;;;23.50;99.90;;;;;;5130702;28;20787;-77
2021/08/14 09:42:08;;;;;;;279.97;100.87;;;23.50;99.90;;;;;;5126113;28;20487;-77
2021/08/14 09:44:38;;;;;;;277.80;98.30;;;23.70;99.90;;;;;;5129001;28;20541;-77
2021/08/14 09:47:09;;;;;;;10.40;6.53;;;23.70;99.90;;;;;;5129129;28;20426;-77
2021/08/14 09:49:52;;;;;;;284.97;98.93;;;23.70;99.50;;;;;;5128815;28;20185;-77
2021/08/14 09:52:21;;;;;;;11.15;5.80;;;23.70;99.60;;;;;;5127827;27;20441;-76
2021/08/14 09:54:50;;;;;;;264.67;94.17;;;23.80;99.80;;;;;;5115783;28;20189;-76
2021/08/14 09:57:20;;;;;;;268.63;100.97;;;23.90;99.80;;;;;;5115050;28;20546;-76
2021/08/14 09:59:50;;;;;;;266.03;97.50;;;23.90;99.70;;;;;;5116596;28;20416;-76
2021/08/14 10:02:23;;;;;;;255.97;97.30;;;23.90;99.60;;;;;;5112625;28;20483;-76
2021/08/14 10:04:52;;;;;;;283.53;97.73;;;23.90;99.40;;;;;;5113263;28;20967;-76
2021/08/14 10:07:20;;;;;;;288.80;101.73;;;24.00;99.50;;;;;;5114835;28;20450;-76
2021/08/14 10:09:49;;;;;;;291.37;103.80;;;24.00;99.40;;;;;;5114842;28;20542;-75
2021/08/14 10:12:20;;;;;;;12.07;6.75;;;24.00;99.40;;;;;;5113827;28;20431;-76
2021/08/14 10:14:50;;;;;;;312.90;119.27;;;24.20;99.10;;;;;;5116346;28;20174;-76
2021/08/14 10:17:23;;;;;;;60.20;28.33;;;24.20;99.10;;;;;;5115886;28;20513;-76
2021/08/14 10:19:53;;;;;;;253.83;109.23;;;24.30;98.60;;;;;;5116068;28;20592;-76
2021/08/14 10:22:25;;;;;;;281.47;112.23;;;24.40;98.70;;;;;;5116159;28;20506;-76
2021/08/14 10:24:55;;;;;;;255.03;108.87;;;24.40;98.70;;;;;;5114554;28;20431;-76
2021/08/14 10:27:24;;;;;;;268.63;105.80;;;24.40;98.70;;;;;;5115895;28;20945;-76
2021/08/14 10:29:55;;;;;;;271.97;110.47;;;24.50;98.70;;;;;;5114529;28;20440;-76
2021/08/14 10:32:45;;;;;;;292.07;101.73;;;24.60;98.50;;;;;;5115402;28;21012;-76
2021/08/14 10:35:36;;;;;;;304.93;112.23;;;24.60;98.10;;;;;;5115536;28;20439;-75
2021/08/14 10:38:05;;;;;;;311.83;109.63;;;24.50;98.00;;;;;;5115709;28;20940;-75
2021/08/14 10:40:59;;;;;;;8.70;4.40;;;24.50;98.10;;;;;;5114379;28;20913;-75
2021/08/14 10:43:59;;;;;;;262.53;97.57;;;24.50;97.30;;;;;;5114106;28;20217;-74
2021/08/14 10:46:49;;;;;;;8.00;4.50;;;24.40;97.40;;;;;;5114273;28;20438;-76
2021/08/14 10:49:37;;;;;;;271.10;105.50;;;24.40;97.20;;;;;;5114963;28;20232;-75
2021/08/14 10:52:13;;;;;;;268.63;99.20;;;24.40;97.40;;;;;;5115397;28;20537;-75
2021/08/14 10:55:10;;;;;;;260.17;98.73;;;24.30;97.40;;;;;;5114001;28;20442;-74
2021/08/14 10:57:55;;;;;;;298.00;105.53;;;24.20;97.40;;;;;;5115533;28;20803;-73
2021/08/14 11:00:28;;;;;;;287.00;99.70;;;24.10;97.50;;;;;;5115239;28;20427;-74
2021/08/14 11:03:10;;;;;;;295.80;105.47;;;24.10;97.50;;;;;;5113921;28;20913;-74
2021/08/14 11:05:41;;;;;;;8.73;4.80;;;24.10;97.50;;;;;;5112931;28;20912;-74
2021/08/14 11:08:27;;;;;;;316.93;122.60;;;24.10;97.00;;;;;;5115087;28;20189;-73
2021/08/14 11:10:55;;;;;;;266.10;99.80;;;24.20;97.10;;;;;;5115456;28;20784;-75
2021/08/14 11:14:07;;;;;;;291.80;96.60;;;24.20;97.40;;;;;;5115015;28;20545;-77
2021/08/14 11:17:04;;;;;;;9.57;6.47;;;24.20;97.20;;;;;;5113750;28;20443;-74
2021/08/14 11:19:42;;;;;;;287.63;104.03;;;24.30;97.00;;;;;;5096446;28;20199;-74
2021/08/14 11:22:28;;;;;;;289.53;101.97;;;24.30;97.00;;;;;;5114733;28;20452;-77
2021/08/14 11:24:59;;;;;;;290.10;101.30;;;24.20;97.00;;;;;;5118210;28;20443;-78
2021/08/14 11:27:29;;;;;;;294.40;98.77;;;24.20;97.00;;;;;;5119567;28;20420;-79
2021/08/14 11:30:00;;;;;;;298.13;107.00;;;24.20;97.30;;;;;;5116894;28;20500;-80
2021/08/14 11:32:33;;;;;;;298.47;113.80;;;24.30;97.10;;;;;;5117201;28;20499;-80
2021/08/14 11:35:04;;;;;;;301.70;118.10;;;24.30;97.00;;;;;;5119206;28;20435;-80
2021/08/14 11:37:32;;;;;;;299.50;108.77;;;24.30;96.90;;;;;;5117867;28;20494;-81
2021/08/14 11:40:03;;;;;;;8.13;5.43;;;24.30;96.80;;;;;;5126299;28;20573;-81
2021/08/14 11:42:33;;;;;;;292.03;107.30;;;24.40;96.50;;;;;;5151251;27;20222;-80
2021/08/14 11:45:02;;;;;;;293.60;103.57;;;24.30;96.50;;;;;;5132362;28;20435;-80
2021/08/14 11:47:35;;;;;;;296.63;105.63;;;24.30;96.50;;;;;;5133687;28;20446;-80
2021/08/14 11:50:09;;;;;;;301.60;110.20;;;24.20;96.50;;;;;;5131890;28;20871;-80
2021/08/14 11:52:38;;;;;;;292.07;107.13;;;24.20;96.50;;;;;;5125287;28;20479;-80
2021/08/14 11:55:11;;;;;;;298.17;109.33;;;24.20;96.60;;;;;;5134076;28;20507;-81
2021/08/14 11:57:41;;;;;;;292.93;110.67;;;24.30;96.70;;;;;;5132806;28;20452;-80
2021/08/14 12:00:25;;;;;;;298.47;110.90;;;24.30;96.60;;;;;;5132960;28;20439;-81
2021/08/14 12:03:10;;;;;;;294.47;110.40;;;24.30;96.50;;;;;;5133973;28;20471;-80
2021/08/14 12:05:39;;;;;;;308.10;116.17;;;24.40;96.70;;;;;;5133414;28;20431;-81
2021/08/14 12:08:09;;;;;;;291.33;104.03;;;24.40;96.70;;;;;;5129847;28;20541;-79
2021/08/14 12:10:38;;;;;;;301.00;109.30;;;24.50;96.80;;;;;;5126708;28;20443;-80
2021/08/14 12:13:07;;;;;;;300.70;109.60;;;24.60;96.80;;;;;;5134041;28;20477;-80
2021/08/14 12:16:10;;;;;;;9.90;7.82;;;24.70;96.70;;;;;;5130915;28;20476;-80
2021/08/14 12:18:41;;;;;;;303.93;119.40;;;24.90;96.30;;;;;;5132581;28;20720;-79
2021/08/14 12:21:11;;;;;;;325.30;124.97;;;24.90;96.30;;;;;;5128470;28;20440;-80
2021/08/14 12:23:45;;;;;;;9.68;6.38;;;25.00;96.30;;;;;;5109224;28;20444;-80
2021/08/14 12:26:24;;;;;;;301.20;108.00;;;25.00;95.80;;;;;;5112424;28;20185;-79
2021/08/14 12:29:01;;;;;;;311.67;117.80;;;25.00;95.90;;;;;;5113419;28;20424;-80
2021/08/14 12:31:30;;;;;;;311.60;122.90;;;25.00;95.90;;;;;;5131373;28;20412;-79
2021/08/14 12:34:00;;;;;;;312.57;118.40;;;25.00;96.00;;;;;;5124862;28;20447;-79
2021/08/14 12:36:35;;;;;;;305.63;109.67;;;25.00;96.10;;;;;;5101973;28;20439;-79
2021/08/14 12:39:04;;;;;;;8.88;5.40;;;25.10;96.10;;;;;;5106908;28;20449;-79
2021/08/14 12:41:37;;;;;;;286.93;119.27;;;25.20;95.50;;;;;;5127146;28;20215;-80
2021/08/14 12:44:06;;;;;;;142.25;56.35;;;25.30;95.60;;;;;;5131278;28;21005;-80
2021/08/14 12:46:35;;;;;;;324.97;121.23;;;25.40;95.30;;;;;;5130237;28;20209;-79
2021/08/14 12:49:18;;;;;;;325.57;130.10;;;25.40;95.20;;;;;;5130095;28;20963;-82
2021/08/14 12:51:55;;;;;;;92.90;63.00;;;25.30;95.10;;;;;;5127955;28;20477;-82
2021/08/14 12:54:24;;;;;;;69.13;61.77;;;25.30;95.20;;;;;;5131462;28;20459;-80